sensor_id;sensor_type;location;lat;lon;timestamp;temperature;humidity
29813;DHT22;16707;48.106;11.548;2023-02-01T00:01:32;4.50;93.60
29813;DHT22;16707;48.106;11.548;2023-02-01T00:03:59;4.50;93.70
29813;DHT22;16707;48.106;11.548;2023-02-01T00:06:26;4.50;93.50
29813;DHT22;16707;48.106;11.548;2023-02-01T00:08:53;4.60;93.20
29813;DHT22;16707;48.106;11.548;2023-02-01T00:11:24;4.70;93.00
29813;DHT22;16707;48.106;11.548;2023-02-01T00:13:52;4.60;92.90
29813;DHT22;16707;48.106;11.548;2023-02-01T00:16:21;4.60;92.60
29813;DHT22;16707;48.106;11.548;2023-02-01T00:19:00;4.60;92.40
29813;DHT22;16707;48.106;11.548;2023-02-01T00:21:31;4.70;92.60
29813;DHT22;16707;48.106;11.548;2023-02-01T00:24:00;4.60;92.60
29813;DHT22;16707;48.106;11.548;2023-02-01T00:26:33;4.70;92.40
29813;DHT22;16707;48.106;11.548;2023-02-01T00:29:02;4.60;92.40
29813;DHT22;16707;48.106;11.548;2023-02-01T00:31:33;4.60;92.20
29813;DHT22;16707;48.106;11.548;2023-02-01T00:34:05;4.70;92.00
29813;DHT22;16707;48.106;11.548;2023-02-01T00:36:35;4.70;92.10
29813;DHT22;16707;48.106;11.548;2023-02-01T00:39:03;4.70;91.90
29813;DHT22;16707;48.106;11.548;2023-02-01T00:41:30;4.70;92.10
29813;DHT22;16707;48.106;11.548;2023-02-01T00:44:03;4.70;92.50
29813;DHT22;16707;48.106;11.548;2023-02-01T00:46:30;4.60;93.10
29813;DHT22;16707;48.106;11.548;2023-02-01T00:48:59;4.60;93.60
29813;DHT22;16707;48.106;11.548;2023-02-01T00:51:34;4.60;94.20
29813;DHT22;16707;48.106;11.548;2023-02-01T00:54:02;4.40;94.40
29813;DHT22;16707;48.106;11.548;2023-02-01T00:56:29;4.40;94.90
29813;DHT22;16707;48.106;11.548;2023-02-01T00:58:59;4.30;95.60
29813;DHT22;16707;48.106;11.548;2023-02-01T01:01:29;4.30;97.00
29813;DHT22;16707;48.106;11.548;2023-02-01T01:03:59;4.10;98.70
29813;DHT22;16707;48.106;11.548;2023-02-01T01:06:32;4.00;99.40
29813;DHT22;16707;48.106;11.548;2023-02-01T01:09:04;4.00;99.90
29813;DHT22;16707;48.106;11.548;2023-02-01T01:11:35;4.00;99.90
29813;DHT22;16707;48.106;11.548;2023-02-01T01:14:03;4.00;99.90
29813;DHT22;16707;48.106;11.548;2023-02-01T01:16:44;4.00;99.90
29813;DHT22;16707;48.106;11.548;2023-02-01T01:19:11;4.00;99.90
29813;DHT22;16707;48.106;11.548;2023-02-01T01:21:43;4.00;99.90
29813;DHT22;16707;48.106;11.548;2023-02-01T01:24:13;4.00;99.90
29813;DHT22;16707;48.106;11.548;2023-02-01T01:26:40;4.00;99.90
29813;DHT22;16707;48.106;11.548;2023-02-01T01:29:09;4.00;99.90
29813;DHT22;16707;48.106;11.548;2023-02-01T01:31:36;4.00;99.90
29813;DHT22;16707;48.106;11.548;2023-02-01T01:34:06;4.00;99.90
29813;DHT22;16707;48.106;11.548;2023-02-01T01:36:32;3.90;99.90
29813;DHT22;16707;48.106;11.548;2023-02-01T01:39:01;3.90;99.90
29813;DHT22;16707;48.106;11.548;2023-02-01T01:41:37;3.90;99.90
29813;DHT22;16707;48.106;11.548;2023-02-01T01:46:50;3.70;99.90
29813;DHT22;16707;48.106;11.548;2023-02-01T01:49:23;3.60;99.90
29813;DHT22;16707;48.106;11.548;2023-02-01T01:51:52;3.60;99.90
29813;DHT22;16707;48.106;11.548;2023-02-01T01:54:35;3.60;99.90
29813;DHT22;16707;48.106;11.548;2023-02-01T01:57:07;3.60;99.90
29813;DHT22;16707;48.106;11.548;2023-02-01T01:59:36;3.50;99.90
29813;DHT22;16707;48.106;11.548;2023-02-01T02:02:07;3.40;99.90
29813;DHT22;16707;48.106;11.548;2023-02-01T02:04:37;3.40;99.90
29813;DHT22;16707;48.106;11.548;2023-02-01T02:07:09;3.50;99.90
29813;DHT22;16707;48.106;11.548;2023-02-01T02:09:39;3.40;99.90
29813;DHT22;16707;48.106;11.548;2023-02-01T02:12:08;3.40;99.90
29813;DHT22;16707;48.106;11.548;2023-02-01T02:14:35;3.40;99.90
29813;DHT22;16707;48.106;11.548;2023-02-01T02:17:11;3.30;99.90
29813;DHT22;16707;48.106;11.548;2023-02-01T02:20:11;3.30;99.90
29813;DHT22;16707;48.106;11.548;2023-02-01T02:23:05;3.40;99.90
29813;DHT22;16707;48.106;11.548;2023-02-01T02:29:35;3.40;99.90
29813;DHT22;16707;48.106;11.548;2023-02-01T02:35:30;3.50;99.90
29813;DHT22;16707;48.106;11.548;2023-02-01T02:38:10;3.50;99.90
29813;DHT22;16707;48.106;11.548;2023-02-01T02:40:46;3.50;99.90
29813;DHT22;16707;48.106;11.548;2023-02-01T02:43:21;3.50;99.90
29813;DHT22;16707;48.106;11.548;2023-02-01T02:46:16;3.60;99.90
29813;DHT22;16707;48.106;11.548;2023-02-01T02:49:09;3.60;99.90
29813;DHT22;16707;48.106;11.548;2023-02-01T02:51:40;3.60;99.90
29813;DHT22;16707;48.106;11.548;2023-02-01T02:54:29;3.60;99.90
29813;DHT22;16707;48.106;11.548;2023-02-01T02:57:20;3.70;99.90
29813;DHT22;16707;48.106;11.548;2023-02-01T03:00:08;3.60;99.90
29813;DHT22;16707;48.106;11.548;2023-02-01T03:02:53;3.60;99.90
29813;DHT22;16707;48.106;11.548;2023-02-01T03:05:41;3.70;99.90
29813;DHT22;16707;48.106;11.548;2023-02-01T03:08:14;3.70;99.90
29813;DHT22;16707;48.106;11.548;2023-02-01T03:10:55;3.60;99.90
29813;DHT22;16707;48.106;11.548;2023-02-01T03:13:28;3.70;99.90
29813;DHT22;16707;48.106;11.548;2023-02-01T03:16:08;3.70;99.90
29813;DHT22;16707;48.106;11.548;2023-02-01T03:18:44;3.70;99.90
29813;DHT22;16707;48.106;11.548;2023-02-01T03:21:21;3.90;99.90
29813;DHT22;16707;48.106;11.548;2023-02-01T03:23:56;3.80;99.90
29813;DHT22;16707;48.106;11.548;2023-02-01T03:26:27;3.90;99.90
29813;DHT22;16707;48.106;11.548;2023-02-01T03:29:02;3.90;99.90
29813;DHT22;16707;48.106;11.548;2023-02-01T03:31:32;3.90;99.90
29813;DHT22;16707;48.106;11.548;2023-02-01T03:34:00;3.90;99.90
29813;DHT22;16707;48.106;11.548;2023-02-01T03:36:31;3.90;99.90
29813;DHT22;16707;48.106;11.548;2023-02-01T03:39:05;3.90;99.90
29813;DHT22;16707;48.106;11.548;2023-02-01T03:41:39;3.90;99.90
29813;DHT22;16707;48.106;11.548;2023-02-01T03:44:20;4.00;99.90
29813;DHT22;16707;48.106;11.548;2023-02-01T03:46:59;3.90;99.90
29813;DHT22;16707;48.106;11.548;2023-02-01T03:49:34;4.00;99.90
29813;DHT22;16707;48.106;11.548;2023-02-01T03:52:05;4.00;99.90
29813;DHT22;16707;48.106;11.548;2023-02-01T03:54:36;3.90;99.90
29813;DHT22;16707;48.106;11.548;2023-02-01T03:57:07;4.00;99.90
29813;DHT22;16707;48.106;11.548;2023-02-01T03:59:39;4.00;99.90
29813;DHT22;16707;48.106;11.548;2023-02-01T04:02:06;4.00;99.90
29813;DHT22;16707;48.106;11.548;2023-02-01T04:04:34;4.00;99.90
29813;DHT22;16707;48.106;11.548;2023-02-01T04:07:01;4.00;99.90
29813;DHT22;16707;48.106;11.548;2023-02-01T04:09:28;4.00;99.90
29813;DHT22;16707;48.106;11.548;2023-02-01T04:11:56;4.10;99.90
29813;DHT22;16707;48.106;11.548;2023-02-01T04:14:23;4.10;99.90
29813;DHT22;16707;48.106;11.548;2023-02-01T04:16:53;4.10;99.90
29813;DHT22;16707;48.106;11.548;2023-02-01T04:19:23;4.10;99.90
29813;DHT22;16707;48.106;11.548;2023-02-01T04:21:50;4.10;99.90
29813;DHT22;16707;48.106;11.548;2023-02-01T04:24:17;4.10;99.90
29813;DHT22;16707;48.106;11.548;2023-02-01T04:26:44;4.10;99.90
29813;DHT22;16707;48.106;11.548;2023-02-01T04:29:13;4.10;99.90
29813;DHT22;16707;48.106;11.548;2023-02-01T04:31:40;4.00;99.90
29813;DHT22;16707;48.106;11.548;2023-02-01T04:34:07;4.00;99.90
29813;DHT22;16707;48.106;11.548;2023-02-01T04:36:40;4.10;99.90
29813;DHT22;16707;48.106;11.548;2023-02-01T04:39:08;4.10;99.90
29813;DHT22;16707;48.106;11.548;2023-02-01T04:41:35;4.10;99.90
29813;DHT22;16707;48.106;11.548;2023-02-01T04:44:02;4.10;99.90
29813;DHT22;16707;48.106;11.548;2023-02-01T04:46:31;4.00;99.90
29813;DHT22;16707;48.106;11.548;2023-02-01T04:48:58;4.10;99.90
29813;DHT22;16707;48.106;11.548;2023-02-01T04:51:27;4.10;99.90
29813;DHT22;16707;48.106;11.548;2023-02-01T04:53:53;4.00;99.90
29813;DHT22;16707;48.106;11.548;2023-02-01T04:56:21;4.00;99.90
29813;DHT22;16707;48.106;11.548;2023-02-01T04:58:51;4.00;99.90
29813;DHT22;16707;48.106;11.548;2023-02-01T05:01:19;4.00;99.90
29813;DHT22;16707;48.106;11.548;2023-02-01T05:03:47;4.10;99.90
29813;DHT22;16707;48.106;11.548;2023-02-01T05:06:17;4.00;99.90
29813;DHT22;16707;48.106;11.548;2023-02-01T05:08:44;4.10;99.90
29813;DHT22;16707;48.106;11.548;2023-02-01T05:11:13;4.10;99.90
29813;DHT22;16707;48.106;11.548;2023-02-01T05:13:56;4.10;99.90
29813;DHT22;16707;48.106;11.548;2023-02-01T05:16:24;4.10;99.90
29813;DHT22;16707;48.106;11.548;2023-02-01T05:18:53;4.00;99.90
29813;DHT22;16707;48.106;11.548;2023-02-01T05:21:23;4.00;99.90
29813;DHT22;16707;48.106;11.548;2023-02-01T05:23:54;4.00;99.90
29813;DHT22;16707;48.106;11.548;2023-02-01T05:26:40;4.20;99.90
29813;DHT22;16707;48.106;11.548;2023-02-01T05:29:09;4.10;99.90
29813;DHT22;16707;48.106;11.548;2023-02-01T05:31:36;4.10;99.90
29813;DHT22;16707;48.106;11.548;2023-02-01T05:34:06;4.10;99.90
29813;DHT22;16707;48.106;11.548;2023-02-01T05:36:34;4.10;99.90
29813;DHT22;16707;48.106;11.548;2023-02-01T05:39:02;4.10;99.90
29813;DHT22;16707;48.106;11.548;2023-02-01T05:41:29;4.10;99.90
29813;DHT22;16707;48.106;11.548;2023-02-01T05:43:56;4.00;99.90
29813;DHT22;16707;48.106;11.548;2023-02-01T05:46:24;4.10;99.90
29813;DHT22;16707;48.106;11.548;2023-02-01T05:48:54;4.10;99.90
29813;DHT22;16707;48.106;11.548;2023-02-01T05:51:23;4.20;99.90
29813;DHT22;16707;48.106;11.548;2023-02-01T05:53:49;4.10;99.90
29813;DHT22;16707;48.106;11.548;2023-02-01T05:56:22;4.10;99.90
29813;DHT22;16707;48.106;11.548;2023-02-01T05:58:49;4.10;99.90
29813;DHT22;16707;48.106;11.548;2023-02-01T06:01:16;4.10;99.90
29813;DHT22;16707;48.106;11.548;2023-02-01T06:03:46;4.10;99.90
29813;DHT22;16707;48.106;11.548;2023-02-01T06:06:13;4.20;99.90
29813;DHT22;16707;48.106;11.548;2023-02-01T06:08:42;4.10;99.90
29813;DHT22;16707;48.106;11.548;2023-02-01T06:11:10;4.20;99.90
29813;DHT22;16707;48.106;11.548;2023-02-01T06:13:39;4.10;99.90
29813;DHT22;16707;48.106;11.548;2023-02-01T06:16:09;4.20;99.90
29813;DHT22;16707;48.106;11.548;2023-02-01T06:18:41;4.10;99.90
29813;DHT22;16707;48.106;11.548;2023-02-01T06:21:09;4.20;99.90
29813;DHT22;16707;48.106;11.548;2023-02-01T06:23:38;4.20;99.90
29813;DHT22;16707;48.106;11.548;2023-02-01T06:26:07;4.20;99.90
29813;DHT22;16707;48.106;11.548;2023-02-01T06:28:34;4.10;99.90
29813;DHT22;16707;48.106;11.548;2023-02-01T06:31:05;4.20;99.90
29813;DHT22;16707;48.106;11.548;2023-02-01T06:33:33;4.10;99.90
29813;DHT22;16707;48.106;11.548;2023-02-01T06:36:04;4.10;99.90
29813;DHT22;16707;48.106;11.548;2023-02-01T06:38:32;4.20;99.90
29813;DHT22;16707;48.106;11.548;2023-02-01T06:41:00;4.20;99.90
29813;DHT22;16707;48.106;11.548;2023-02-01T06:43:29;4.20;99.90
29813;DHT22;16707;48.106;11.548;2023-02-01T06:46:00;4.20;99.90
29813;DHT22;16707;48.106;11.548;2023-02-01T06:48:27;4.20;99.90
29813;DHT22;16707;48.106;11.548;2023-02-01T06:50:54;4.30;99.90
29813;DHT22;16707;48.106;11.548;2023-02-01T06:53:21;4.30;99.90
29813;DHT22;16707;48.106;11.548;2023-02-01T06:55:52;4.30;99.90
29813;DHT22;16707;48.106;11.548;2023-02-01T06:58:19;4.30;99.90
29813;DHT22;16707;48.106;11.548;2023-02-01T07:00:47;4.30;99.90
29813;DHT22;16707;48.106;11.548;2023-02-01T07:03:15;4.30;99.90
29813;DHT22;16707;48.106;11.548;2023-02-01T07:05:42;4.30;99.90
29813;DHT22;16707;48.106;11.548;2023-02-01T07:08:09;4.50;99.90
29813;DHT22;16707;48.106;11.548;2023-02-01T07:10:39;4.30;99.90
29813;DHT22;16707;48.106;11.548;2023-02-01T07:13:05;4.30;99.90
29813;DHT22;16707;48.106;11.548;2023-02-01T07:15:32;4.30;99.90
29813;DHT22;16707;48.106;11.548;2023-02-01T07:18:01;4.40;99.90
29813;DHT22;16707;48.106;11.548;2023-02-01T07:20:28;4.40;99.90
29813;DHT22;16707;48.106;11.548;2023-02-01T07:22:55;4.40;99.90
29813;DHT22;16707;48.106;11.548;2023-02-01T07:25:23;4.50;99.90
29813;DHT22;16707;48.106;11.548;2023-02-01T07:27:50;4.40;99.90
29813;DHT22;16707;48.106;11.548;2023-02-01T07:30:19;4.40;99.90
29813;DHT22;16707;48.106;11.548;2023-02-01T07:32:46;4.50;99.90
29813;DHT22;16707;48.106;11.548;2023-02-01T07:35:18;4.50;99.90
29813;DHT22;16707;48.106;11.548;2023-02-01T07:37:45;4.40;99.80
29813;DHT22;16707;48.106;11.548;2023-02-01T07:40:12;4.50;99.60
29813;DHT22;16707;48.106;11.548;2023-02-01T07:42:39;4.50;99.30
29813;DHT22;16707;48.106;11.548;2023-02-01T07:45:07;4.50;99.10
29813;DHT22;16707;48.106;11.548;2023-02-01T07:47:34;4.50;99.00
29813;DHT22;16707;48.106;11.548;2023-02-01T07:50:01;4.40;98.90
29813;DHT22;16707;48.106;11.548;2023-02-01T07:52:36;4.60;98.80
29813;DHT22;16707;48.106;11.548;2023-02-01T07:55:04;4.60;98.80
29813;DHT22;16707;48.106;11.548;2023-02-01T07:57:33;4.60;98.10
29813;DHT22;16707;48.106;11.548;2023-02-01T08:00:00;4.70;97.90
29813;DHT22;16707;48.106;11.548;2023-02-01T08:02:45;4.80;97.60
29813;DHT22;16707;48.106;11.548;2023-02-01T08:05:12;4.80;97.40
29813;DHT22;16707;48.106;11.548;2023-02-01T08:07:40;4.80;96.80
29813;DHT22;16707;48.106;11.548;2023-02-01T08:10:08;4.90;96.50
29813;DHT22;16707;48.106;11.548;2023-02-01T08:12:37;4.90;96.40
29813;DHT22;16707;48.106;11.548;2023-02-01T08:15:04;5.00;96.30
29813;DHT22;16707;48.106;11.548;2023-02-01T08:17:32;5.00;95.60
29813;DHT22;16707;48.106;11.548;2023-02-01T08:19:59;5.00;95.70
29813;DHT22;16707;48.106;11.548;2023-02-01T08:22:26;5.00;95.20
29813;DHT22;16707;48.106;11.548;2023-02-01T08:24:54;5.00;95.20
29813;DHT22;16707;48.106;11.548;2023-02-01T08:27:26;5.10;95.10
29813;DHT22;16707;48.106;11.548;2023-02-01T08:29:53;5.10;94.70
29813;DHT22;16707;48.106;11.548;2023-02-01T08:32:20;5.10;94.20
29813;DHT22;16707;48.106;11.548;2023-02-01T08:34:47;5.10;94.20
29813;DHT22;16707;48.106;11.548;2023-02-01T08:37:14;5.20;94.10
29813;DHT22;16707;48.106;11.548;2023-02-01T08:39:41;5.20;94.00
29813;DHT22;16707;48.106;11.548;2023-02-01T08:42:11;5.10;93.80
29813;DHT22;16707;48.106;11.548;2023-02-01T08:45:10;5.10;93.70
29813;DHT22;16707;48.106;11.548;2023-02-01T08:47:37;5.30;93.40
29813;DHT22;16707;48.106;11.548;2023-02-01T08:50:05;5.30;93.10
29813;DHT22;16707;48.106;11.548;2023-02-01T08:52:32;5.50;92.90
29813;DHT22;16707;48.106;11.548;2023-02-01T08:54:58;5.60;92.50
29813;DHT22;16707;48.106;11.548;2023-02-01T08:57:27;5.60;92.40
29813;DHT22;16707;48.106;11.548;2023-02-01T08:59:54;5.70;92.10
29813;DHT22;16707;48.106;11.548;2023-02-01T09:02:21;5.70;91.70
29813;DHT22;16707;48.106;11.548;2023-02-01T09:04:50;5.70;91.50
29813;DHT22;16707;48.106;11.548;2023-02-01T09:07:17;5.80;91.30
29813;DHT22;16707;48.106;11.548;2023-02-01T09:09:47;5.90;91.50
29813;DHT22;16707;48.106;11.548;2023-02-01T09:12:14;5.80;91.30
29813;DHT22;16707;48.106;11.548;2023-02-01T09:14:43;5.80;91.00
29813;DHT22;16707;48.106;11.548;2023-02-01T09:17:10;5.90;90.70
29813;DHT22;16707;48.106;11.548;2023-02-01T09:19:38;5.90;90.90
29813;DHT22;16707;48.106;11.548;2023-02-01T09:22:05;5.90;91.90
29813;DHT22;16707;48.106;11.548;2023-02-01T09:24:32;7.40;99.90
29813;DHT22;16707;48.106;11.548;2023-02-01T09:26:59;7.90;97.20
29813;DHT22;16707;48.106;11.548;2023-02-01T09:29:26;7.20;86.20
29813;DHT22;16707;48.106;11.548;2023-02-01T09:31:58;6.70;87.10
29813;DHT22;16707;48.106;11.548;2023-02-01T09:34:25;6.60;88.60
29813;DHT22;16707;48.106;11.548;2023-02-01T09:36:52;6.50;89.50
29813;DHT22;16707;48.106;11.548;2023-02-01T09:39:19;6.40;89.10
29813;DHT22;16707;48.106;11.548;2023-02-01T09:41:54;6.50;90.00
29813;DHT22;16707;48.106;11.548;2023-02-01T09:44:49;6.60;89.20
29813;DHT22;16707;48.106;11.548;2023-02-01T09:47:21;6.70;89.30
29813;DHT22;16707;48.106;11.548;2023-02-01T09:49:53;6.70;89.50
29813;DHT22;16707;48.106;11.548;2023-02-01T09:52:27;6.70;89.00
29813;DHT22;16707;48.106;11.548;2023-02-01T09:54:57;6.70;88.40
29813;DHT22;16707;48.106;11.548;2023-02-01T09:57:38;6.80;88.50
29813;DHT22;16707;48.106;11.548;2023-02-01T10:00:15;6.80;88.40
29813;DHT22;16707;48.106;11.548;2023-02-01T10:02:45;6.60;88.10
29813;DHT22;16707;48.106;11.548;2023-02-01T10:05:14;6.40;88.70
29813;DHT22;16707;48.106;11.548;2023-02-01T10:07:54;6.70;89.50
29813;DHT22;16707;48.106;11.548;2023-02-01T10:10:29;6.50;89.00
29813;DHT22;16707;48.106;11.548;2023-02-01T10:13:13;6.50;89.60
29813;DHT22;16707;48.106;11.548;2023-02-01T10:15:58;6.40;88.90
29813;DHT22;16707;48.106;11.548;2023-02-01T10:18:44;6.40;89.10
29813;DHT22;16707;48.106;11.548;2023-02-01T10:21:25;6.40;88.90
29813;DHT22;16707;48.106;11.548;2023-02-01T10:24:06;6.50;88.50
29813;DHT22;16707;48.106;11.548;2023-02-01T10:26:38;6.40;88.60
29813;DHT22;16707;48.106;11.548;2023-02-01T10:29:16;6.40;88.70
29813;DHT22;16707;48.106;11.548;2023-02-01T10:31:45;6.40;88.90
29813;DHT22;16707;48.106;11.548;2023-02-01T10:34:18;6.60;89.20
29813;DHT22;16707;48.106;11.548;2023-02-01T10:36:53;6.50;88.50
29813;DHT22;16707;48.106;11.548;2023-02-01T10:39:20;6.30;89.00
29813;DHT22;16707;48.106;11.548;2023-02-01T10:41:48;6.40;89.90
29813;DHT22;16707;48.106;11.548;2023-02-01T10:44:16;6.40;90.00
29813;DHT22;16707;48.106;11.548;2023-02-01T10:46:44;6.60;89.70
29813;DHT22;16707;48.106;11.548;2023-02-01T10:49:16;6.60;90.00
29813;DHT22;16707;48.106;11.548;2023-02-01T10:51:47;6.40;90.10
29813;DHT22;16707;48.106;11.548;2023-02-01T10:54:19;6.40;90.10
29813;DHT22;16707;48.106;11.548;2023-02-01T10:56:47;6.50;90.20
29813;DHT22;16707;48.106;11.548;2023-02-01T10:59:16;6.50;90.10
29813;DHT22;16707;48.106;11.548;2023-02-01T11:01:46;6.50;90.10
29813;DHT22;16707;48.106;11.548;2023-02-01T11:04:15;6.50;90.10
29813;DHT22;16707;48.106;11.548;2023-02-01T11:06:45;6.50;90.40
29813;DHT22;16707;48.106;11.548;2023-02-01T11:09:18;6.40;90.20
29813;DHT22;16707;48.106;11.548;2023-02-01T11:11:56;6.20;90.60
29813;DHT22;16707;48.106;11.548;2023-02-01T11:14:35;6.10;91.00
29813;DHT22;16707;48.106;11.548;2023-02-01T11:17:18;6.20;91.20
29813;DHT22;16707;48.106;11.548;2023-02-01T11:19:56;6.20;90.70
29813;DHT22;16707;48.106;11.548;2023-02-01T11:22:25;6.50;90.80
29813;DHT22;16707;48.106;11.548;2023-02-01T11:24:54;6.50;90.30
29813;DHT22;16707;48.106;11.548;2023-02-01T11:27:22;6.50;90.40
29813;DHT22;16707;48.106;11.548;2023-02-01T11:29:52;6.60;90.10
29813;DHT22;16707;48.106;11.548;2023-02-01T11:32:25;6.70;89.90
29813;DHT22;16707;48.106;11.548;2023-02-01T11:34:57;6.50;90.60
29813;DHT22;16707;48.106;11.548;2023-02-01T11:37:31;6.40;90.40
29813;DHT22;16707;48.106;11.548;2023-02-01T11:40:04;6.30;90.80
29813;DHT22;16707;48.106;11.548;2023-02-01T11:42:31;6.20;90.70
29813;DHT22;16707;48.106;11.548;2023-02-01T11:45:18;6.00;91.00
29813;DHT22;16707;48.106;11.548;2023-02-01T11:47:46;6.00;91.10
29813;DHT22;16707;48.106;11.548;2023-02-01T11:50:25;6.00;91.00
29813;DHT22;16707;48.106;11.548;2023-02-01T11:53:16;5.90;91.10
29813;DHT22;16707;48.106;11.548;2023-02-01T11:55:56;6.00;91.50
29813;DHT22;16707;48.106;11.548;2023-02-01T11:58:46;5.90;91.20
29813;DHT22;16707;48.106;11.548;2023-02-01T12:01:28;6.00;91.30
29813;DHT22;16707;48.106;11.548;2023-02-01T12:04:34;6.00;91.50
29813;DHT22;16707;48.106;11.548;2023-02-01T12:07:14;6.00;91.20
29813;DHT22;16707;48.106;11.548;2023-02-01T12:09:51;6.00;91.40
29813;DHT22;16707;48.106;11.548;2023-02-01T12:12:26;6.00;91.10
29813;DHT22;16707;48.106;11.548;2023-02-01T12:15:24;6.10;91.30
29813;DHT22;16707;48.106;11.548;2023-02-01T12:18:27;6.10;91.10
29813;DHT22;16707;48.106;11.548;2023-02-01T12:21:06;6.00;91.00
29813;DHT22;16707;48.106;11.548;2023-02-01T12:23:57;6.00;91.10
29813;DHT22;16707;48.106;11.548;2023-02-01T12:26:42;6.10;91.00
29813;DHT22;16707;48.106;11.548;2023-02-01T12:29:25;5.90;90.90
29813;DHT22;16707;48.106;11.548;2023-02-01T12:32:03;5.80;90.90
29813;DHT22;16707;48.106;11.548;2023-02-01T12:35:13;5.80;90.90
29813;DHT22;16707;48.106;11.548;2023-02-01T12:37:54;5.60;91.00
29813;DHT22;16707;48.106;11.548;2023-02-01T12:40:38;5.50;91.30
29813;DHT22;16707;48.106;11.548;2023-02-01T12:43:12;5.50;91.40
29813;DHT22;16707;48.106;11.548;2023-02-01T12:45:53;5.40;91.60
29813;DHT22;16707;48.106;11.548;2023-02-01T12:48:31;5.40;91.60
29813;DHT22;16707;48.106;11.548;2023-02-01T12:51:02;5.50;91.40
29813;DHT22;16707;48.106;11.548;2023-02-01T12:53:42;5.50;90.60
29813;DHT22;16707;48.106;11.548;2023-02-01T12:56:15;5.50;90.90
29813;DHT22;16707;48.106;11.548;2023-02-01T12:58:45;5.50;90.40
29813;DHT22;16707;48.106;11.548;2023-02-01T13:01:21;5.60;90.50
29813;DHT22;16707;48.106;11.548;2023-02-01T13:03:54;5.50;90.20
29813;DHT22;16707;48.106;11.548;2023-02-01T13:06:25;5.50;90.20
29813;DHT22;16707;48.106;11.548;2023-02-01T13:08:57;5.50;90.20
29813;DHT22;16707;48.106;11.548;2023-02-01T13:11:31;5.60;90.10
29813;DHT22;16707;48.106;11.548;2023-02-01T13:14:03;5.50;90.30
29813;DHT22;16707;48.106;11.548;2023-02-01T13:16:35;5.60;90.20
29813;DHT22;16707;48.106;11.548;2023-02-01T13:19:09;5.60;90.30
29813;DHT22;16707;48.106;11.548;2023-02-01T13:21:41;5.70;90.30
29813;DHT22;16707;48.106;11.548;2023-02-01T13:24:21;5.70;90.40
29813;DHT22;16707;48.106;11.548;2023-02-01T13:26:56;5.70;90.40
29813;DHT22;16707;48.106;11.548;2023-02-01T13:29:24;5.60;90.60
29813;DHT22;16707;48.106;11.548;2023-02-01T13:32:15;5.80;90.80
29813;DHT22;16707;48.106;11.548;2023-02-01T13:35:15;5.70;91.30
29813;DHT22;16707;48.106;11.548;2023-02-01T13:38:18;5.80;91.30
29813;DHT22;16707;48.106;11.548;2023-02-01T13:40:55;5.80;91.50
29813;DHT22;16707;48.106;11.548;2023-02-01T13:43:32;5.70;91.60
29813;DHT22;16707;48.106;11.548;2023-02-01T13:46:05;5.80;91.70
29813;DHT22;16707;48.106;11.548;2023-02-01T13:48:39;5.90;92.10
29813;DHT22;16707;48.106;11.548;2023-02-01T13:51:07;5.90;91.80
29813;DHT22;16707;48.106;11.548;2023-02-01T13:53:35;5.80;92.40
29813;DHT22;16707;48.106;11.548;2023-02-01T13:56:11;5.90;91.90
29813;DHT22;16707;48.106;11.548;2023-02-01T13:58:41;5.80;92.10
29813;DHT22;16707;48.106;11.548;2023-02-01T14:04:05;5.80;92.50
29813;DHT22;16707;48.106;11.548;2023-02-01T14:06:39;5.80;92.60
29813;DHT22;16707;48.106;11.548;2023-02-01T14:09:14;5.70;92.40
29813;DHT22;16707;48.106;11.548;2023-02-01T14:11:42;5.60;92.80
29813;DHT22;16707;48.106;11.548;2023-02-01T14:14:49;5.60;92.90
29813;DHT22;16707;48.106;11.548;2023-02-01T14:17:33;5.50;92.80
29813;DHT22;16707;48.106;11.548;2023-02-01T14:23:26;5.50;93.00
29813;DHT22;16707;48.106;11.548;2023-02-01T14:26:11;5.50;92.80
29813;DHT22;16707;48.106;11.548;2023-02-01T14:28:44;5.50;92.20
29813;DHT22;16707;48.106;11.548;2023-02-01T14:31:35;5.50;92.40
29813;DHT22;16707;48.106;11.548;2023-02-01T14:34:18;5.50;92.20
29813;DHT22;16707;48.106;11.548;2023-02-01T14:36:50;5.40;91.70
29813;DHT22;16707;48.106;11.548;2023-02-01T14:39:32;5.40;91.90
29813;DHT22;16707;48.106;11.548;2023-02-01T14:42:03;5.40;91.80
29813;DHT22;16707;48.106;11.548;2023-02-01T14:44:35;5.40;91.30
29813;DHT22;16707;48.106;11.548;2023-02-01T14:50:26;5.40;91.30
29813;DHT22;16707;48.106;11.548;2023-02-01T14:53:18;5.40;91.10
29813;DHT22;16707;48.106;11.548;2023-02-01T14:55:51;5.40;91.30
29813;DHT22;16707;48.106;11.548;2023-02-01T14:58:31;5.40;91.30
29813;DHT22;16707;48.106;11.548;2023-02-01T15:01:02;5.30;91.20
29813;DHT22;16707;48.106;11.548;2023-02-01T15:03:48;5.30;91.20
29813;DHT22;16707;48.106;11.548;2023-02-01T15:06:26;5.40;91.50
29813;DHT22;16707;48.106;11.548;2023-02-01T15:08:59;5.30;91.60
29813;DHT22;16707;48.106;11.548;2023-02-01T15:11:28;5.30;92.00
29813;DHT22;16707;48.106;11.548;2023-02-01T15:13:55;5.20;92.20
29813;DHT22;16707;48.106;11.548;2023-02-01T15:16:24;5.30;92.50
29813;DHT22;16707;48.106;11.548;2023-02-01T15:19:08;5.20;92.60
29813;DHT22;16707;48.106;11.548;2023-02-01T15:21:46;5.10;93.10
29813;DHT22;16707;48.106;11.548;2023-02-01T15:24:18;5.20;93.30
29813;DHT22;16707;48.106;11.548;2023-02-01T15:26:48;4.90;93.70
29813;DHT22;16707;48.106;11.548;2023-02-01T15:29:16;4.80;94.10
29813;DHT22;16707;48.106;11.548;2023-02-01T15:31:46;4.70;94.20
29813;DHT22;16707;48.106;11.548;2023-02-01T15:34:13;4.70;94.80
29813;DHT22;16707;48.106;11.548;2023-02-01T15:36:46;4.70;95.30
29813;DHT22;16707;48.106;11.548;2023-02-01T15:39:19;4.60;95.90
29813;DHT22;16707;48.106;11.548;2023-02-01T15:41:50;4.60;97.50
29813;DHT22;16707;48.106;11.548;2023-02-01T15:44:28;4.60;99.00
29813;DHT22;16707;48.106;11.548;2023-02-01T15:46:55;4.40;99.60
29813;DHT22;16707;48.106;11.548;2023-02-01T15:49:27;4.30;99.90
29813;DHT22;16707;48.106;11.548;2023-02-01T15:51:57;4.40;99.90
29813;DHT22;16707;48.106;11.548;2023-02-01T15:54:27;4.40;99.90
29813;DHT22;16707;48.106;11.548;2023-02-01T15:57:01;4.40;99.90
29813;DHT22;16707;48.106;11.548;2023-02-01T15:59:32;4.40;99.90
29813;DHT22;16707;48.106;11.548;2023-02-01T16:02:04;4.40;99.80
29813;DHT22;16707;48.106;11.548;2023-02-01T16:04:31;4.40;99.60
29813;DHT22;16707;48.106;11.548;2023-02-01T16:07:01;4.40;99.40
29813;DHT22;16707;48.106;11.548;2023-02-01T16:09:40;4.50;99.00
29813;DHT22;16707;48.106;11.548;2023-02-01T16:12:26;4.60;98.30
29813;DHT22;16707;48.106;11.548;2023-02-01T16:14:55;4.40;98.10
29813;DHT22;16707;48.106;11.548;2023-02-01T16:17:22;4.40;97.80
29813;DHT22;16707;48.106;11.548;2023-02-01T16:19:50;4.50;97.70
29813;DHT22;16707;48.106;11.548;2023-02-01T16:22:18;4.50;97.10
29813;DHT22;16707;48.106;11.548;2023-02-01T16:24:45;4.50;96.80